KAMA

Rick Husband Amarillo International Airport

Amarillo, Texas, USA
METAR KAMA 181253Z 22021G26KT 10SM CLR 08/M03 A2972 RMK AO2 PK WND 23027/1232 SLP042 T00831028
Observed Flight Rules
Jan-18 @ 12:53 UTC (53 minutes ago) Visual Flight Rules
Wind Visibility Clouds
220° at 21 knots
 Gusting to 26 knots
10 miles
  • Clear skies
Temperatures Readings
Current 8°C / 46°F
Dewpoint -3°C / 27°F
Humidity 46%
Altimeter 29.72" Hg
Pressure 1004.2 hPa
Elevation 1093
METAR KAMA 181253Z 22021G26KT 10SM CLR 08/M03 A2972 RMK AO2 PK WND 23027/1232 SLP042 T00831028
Observed Flight Rules
Jan-18 @ 12:53 UTC
(53 minutes ago)
VFR
Wind Visibility
220° at 21 knots
 Gusting to 26 knots
10 miles
Clouds
  • Clear skies
Temperature Dewpoint
8°C / 46°F -3°C / 27°F
Humidity Altimeter Pressure
46% 29.72" Hg 1004.2 hPa